Clipper Titan — C6V2055 — position and weather

sailwx.info

Track history (hours):
 
Tides and Currents Weather Stations Pressure Air Temp Water Temp Dewpoint Dewpoint Depression Visibility Wind Speed Wind Dir Waves Ship Positions

Clipper Titan

Last reported at 2016-Jul-26 11:33 UTC. Time now 2016-Jul-26 12:15 UTC.
Position N 31°50' E 034°39'.

Length 179 m; draft 10 m.

Type: Cargo ship. MMSI: 311008200.

Date/timePositionNaut miles runAvg speedWind from/ knotsBaromVisibWave heightAir tempDewpointWater temp
2016-Jul-26 11:33N 31°50' E 034°39'  
2016-Jul-17 10:04N 31°54' E 034°24'5 9.8
2016-Jul-17 09:34N 31°57' E 034°19'1110.4
2016-Jul-17 08:33N 32°01' E 034°08'1110.7
2016-Jul-17 07:31N 32°05' E 033°56'1110.6
2016-Jul-17 06:30N 32°08' E 033°43'2110.4
2016-Jul-17 04:29N 32°13' E 033°19'2210.5
2016-Jul-17 02:24N 32°19' E 032°54'1910.3
2016-Jul-17 00:31N 32°23' E 032°32'1110.4
2016-Jul-16 23:26N 32°26' E 032°19'1010.4
2016-Jul-16 22:29N 32°28' E 032°08'1010.4
2016-Jul-16 21:33N 32°31' E 031°57'1010.4
2016-Jul-16 20:34N 32°34' E 031°45'1110.6
2016-Jul-16 19:33N 32°36' E 031°33'1111.0
2016-Jul-16 18:34N 32°39' E 031°20'1111.2
2016-Jul-16 17:33N 32°42' E 031°07'1211.2
2016-Jul-16 16:31N 32°45' E 030°53'2211.0
2016-Jul-16 14:34N 32°50' E 030°29'2110.4
2016-Jul-16 12:30N 32°55' E 030°04'  
Track history (hours):
 
Tides and Currents Weather Stations Pressure Air Temp Water Temp Dewpoint Dewpoint Depression Visibility Wind Speed Wind Dir Waves Ship Positions

Clipper Titan

Last reported at 2016-Jul-26 11:33 UTC. Time now 2016-Jul-26 12:15 UTC.
Position N 31°50' E 034°39'.

Length 179 m; draft 10 m.

Type: Cargo ship. MMSI: 311008200.

Date/timePositionNaut miles runAvg speedWind from/ knotsBaromVisibWave heightAir tempDewpointWater temp
2016-Jul-26 11:33N 31°50' E 034°39'  
2016-Jul-17 10:04N 31°54' E 034°24'5 9.8
2016-Jul-17 09:34N 31°57' E 034°19'1110.4
2016-Jul-17 08:33N 32°01' E 034°08'1110.7
2016-Jul-17 07:31N 32°05' E 033°56'1110.6
2016-Jul-17 06:30N 32°08' E 033°43'2110.4
2016-Jul-17 04:29N 32°13' E 033°19'2210.5
2016-Jul-17 02:24N 32°19' E 032°54'1910.3
2016-Jul-17 00:31N 32°23' E 032°32'1110.4
2016-Jul-16 23:26N 32°26' E 032°19'1010.4
2016-Jul-16 22:29N 32°28' E 032°08'1010.4
2016-Jul-16 21:33N 32°31' E 031°57'1010.4
2016-Jul-16 20:34N 32°34' E 031°45'1110.6
2016-Jul-16 19:33N 32°36' E 031°33'1111.0
2016-Jul-16 18:34N 32°39' E 031°20'1111.2
2016-Jul-16 17:33N 32°42' E 031°07'1211.2
2016-Jul-16 16:31N 32°45' E 030°53'2211.0
2016-Jul-16 14:34N 32°50' E 030°29'2110.4
2016-Jul-16 12:30N 32°55' E 030°04'  

Dump ship's entire track history